This is the latest recevied weather packets stored in our database for station/object BMCB-29. If no packets are shown the sender has not sent any weather packets the latest 10 day(s).
| Time | Temp. | Humidity | Pressure | Rain* | Wind** | Luminosity | Snow |
|---|---|---|---|---|---|---|---|
| 1777713046 | 20° C | 71% | 1021.2 hPa | 0 mm | - | 560 W/m² | - |
| 1777711842 | 18.33° C | 76% | 1021.3 hPa | 0 mm | - | 532 W/m² | - |
| 1777711247 | 17.22° C | 78% | 1021.5 hPa | 0 mm | - | 582 W/m² | - |
| 1777706441 | 11.67° C | 91% | 1022.2 hPa | 0 mm | - | 66 W/m² | - |
| 1777704043 | 9.44° C | 96% | 1022.6 hPa | 0 mm | - | 64 W/m² | - |
| 1777698042 | 7.22° C | 97% | 1022.6 hPa | 0 mm | - | 26 W/m² | - |
| 1777697441 | 7.78° C | 96% | 1022.6 hPa | 0 mm | - | 30 W/m² | - |
| 1777687847 | 8.33° C | 79% | 1023.5 hPa | 0 mm | - | 0 W/m² | - |
| 1777686043 | 8.33° C | 79% | 1023.4 hPa | 0 mm | - | 0 W/m² | - |
| 1777684843 | 7.78° C | 81% | 1023.4 hPa | 0 mm | - | 0 W/m² | - |
| 1777682443 | 7.78° C | 82% | 1023.4 hPa | 0 mm | - | 0 W/m² | - |
| 1777681246 | 7.78° C | 81% | 1023.3 hPa | 0 mm | - | 0 W/m² | - |
| 1777680641 | 7.78° C | 82% | 1023.4 hPa | 0 mm | - | 0 W/m² | - |
| 1777678845 | 7.78° C | 78% | 1023.6 hPa | 0 mm | - | 0 W/m² | - |
| 1777668047 | 11.67° C | 59% | 1024.4 hPa | 0 mm | - | 0 W/m² | - |
| 1777653645 | 22.78° C | 32% | 1022.9 hPa | 0 mm | - | 262 W/m² | - |
| 1777641644 | 22.78° C | 25% | 1024.1 hPa | 0 mm | - | 746 W/m² | - |
| 1777641047 | 22.22° C | 27% | 1024.2 hPa | 0 mm | - | 762 W/m² | - |
| 1777636845 | 21.67° C | 30% | 1024.8 hPa | 0 mm | - | 824 W/m² | - |
| 1777635045 | 21.67° C | 31% | 1024.9 hPa | 0 mm | - | 830 W/m² | - |
| 1777631445 | 20.56° C | 29% | 1025.4 hPa | 0 mm | - | 804 W/m² | - |
| 1777628447 | 18.89° C | 30% | 1025.8 hPa | 0 mm | - | 748 W/m² | - |
| 1777627244 | 18.33° C | 30% | 1026 hPa | 0 mm | - | 716 W/m² | - |
| 1777619444 | 12.78° C | 40% | 1026.8 hPa | 0 mm | - | 36 W/m² | - |
| 1777611643 | 5.56° C | 58% | 1026.4 hPa | 0 mm | - | 14 W/m² | - |
* Rain latest hour (hover to see other rain measurements)
** Current wind speed in m/s (hover to see current wind gust speed)